createdAt,value
2018-02-19T00:00:35.464Z,25.23
2018-02-19T00:03:03.943Z,24.97
2018-02-19T00:05:33.081Z,25.37
2018-02-19T00:08:00.686Z,27.40
2018-02-19T00:10:28.335Z,23.00
2018-02-19T00:12:55.953Z,24.03
2018-02-19T00:15:24.335Z,25.00
2018-02-19T00:17:52.727Z,22.90
2018-02-19T00:20:21.094Z,22.90
2018-02-19T00:22:49.481Z,23.93
2018-02-19T00:25:17.142Z,22.80
2018-02-19T00:27:45.506Z,24.97
2018-02-19T00:30:13.131Z,22.33
2018-02-19T00:32:40.752Z,23.17
2018-02-19T00:35:08.369Z,22.63
2018-02-19T00:37:35.977Z,24.33
2018-02-19T00:40:03.583Z,21.87
2018-02-19T00:42:31.197Z,22.90
2018-02-19T00:45:00.382Z,22.67
2018-02-19T00:47:28.805Z,22.10
2018-02-19T00:49:56.403Z,21.93
2018-02-19T00:52:24.038Z,19.20
2018-02-19T00:54:51.639Z,19.00
2018-02-19T00:57:19.246Z,19.50
2018-02-19T00:59:46.888Z,18.57
2018-02-19T01:02:14.480Z,19.60
2018-02-19T01:04:42.183Z,18.37
2018-02-19T01:07:10.551Z,20.77
2018-02-19T01:09:38.930Z,18.33
2018-02-19T01:12:06.568Z,19.43
2018-02-19T01:14:34.173Z,18.57
2018-02-19T01:17:02.562Z,19.10
2018-02-19T01:19:31.005Z,18.80
2018-02-19T01:21:58.602Z,18.90
2018-02-19T01:24:27.188Z,18.60
2018-02-19T01:26:55.565Z,17.77
2018-02-19T01:29:23.200Z,17.23
2018-02-19T01:31:50.797Z,17.10
2018-02-19T01:34:19.895Z,18.07
2018-02-19T01:36:48.293Z,17.93
2018-02-19T01:39:16.650Z,18.40
2018-02-19T01:41:44.279Z,17.27
2018-02-19T01:44:11.879Z,16.87
2018-02-19T01:46:39.507Z,17.17
2018-02-19T01:49:07.275Z,15.30
2018-02-19T01:51:34.917Z,16.07
2018-02-19T01:54:03.293Z,15.83
2018-02-19T01:56:31.702Z,17.37
2018-02-19T01:58:59.318Z,15.43
2018-02-19T02:01:26.943Z,15.13
2018-02-19T02:03:54.643Z,14.53
2018-02-19T02:06:22.247Z,13.50
2018-02-19T02:08:49.896Z,13.73
2018-02-19T02:11:18.266Z,14.53
2018-02-19T02:13:46.009Z,15.10
2018-02-19T02:16:13.624Z,14.20
2018-02-19T02:18:42.038Z,12.17
2018-02-19T02:21:09.656Z,12.43
2018-02-19T02:23:37.280Z,12.60
2018-02-19T02:26:04.895Z,13.60
2018-02-19T02:28:41.013Z,13.37
2018-02-19T02:31:08.986Z,14.03
2018-02-19T02:33:36.661Z,13.20
2018-02-19T02:36:04.260Z,13.13
2018-02-19T02:38:32.737Z,13.90
2018-02-19T02:41:00.363Z,12.80
2018-02-19T02:43:28.004Z,12.23
2018-02-19T02:45:56.378Z,13.97
2018-02-19T02:48:24.813Z,12.30
2018-02-19T02:50:52.436Z,14.77
2018-02-19T02:53:20.795Z,13.40
2018-02-19T02:55:48.423Z,13.77
2018-02-19T02:58:16.169Z,12.97
2018-02-19T03:00:43.792Z,13.03
2018-02-19T03:03:12.175Z,12.33
2018-02-19T03:05:40.553Z,12.53
2018-02-19T03:08:08.166Z,13.97
2018-02-19T03:10:35.784Z,12.53
2018-02-19T03:13:03.395Z,12.60
2018-02-19T03:15:31.003Z,12.90
2018-02-19T03:17:58.639Z,12.97
2018-02-19T03:20:26.239Z,13.87
2018-02-19T03:22:53.852Z,12.70
2018-02-19T03:25:21.465Z,12.93
2018-02-19T03:27:49.067Z,12.40
2018-02-19T03:30:16.752Z,11.37
2018-02-19T03:32:44.351Z,11.70
2018-02-19T03:35:11.979Z,14.00
2018-02-19T03:37:40.359Z,13.60
2018-02-19T03:40:08.723Z,14.30
2018-02-19T03:42:37.099Z,14.40
2018-02-19T03:45:05.478Z,13.07
2018-02-19T03:47:34.614Z,12.77
2018-02-19T03:50:02.281Z,14.53
2018-02-19T03:52:29.899Z,11.63
2018-02-19T03:54:57.525Z,13.17
2018-02-19T03:57:25.515Z,12.20
2018-02-19T03:59:53.108Z,12.97
2018-02-19T04:02:20.694Z,11.73
2018-02-19T04:04:48.322Z,13.03
2018-02-19T04:07:15.920Z,12.20
2018-02-19T04:09:44.292Z,14.27
2018-02-19T04:12:11.908Z,14.17
2018-02-19T04:14:39.642Z,13.47
2018-02-19T04:17:07.246Z,12.60
2018-02-19T04:19:34.852Z,12.30
2018-02-19T04:22:02.478Z,12.50
2018-02-19T04:24:30.087Z,13.60
2018-02-19T04:26:57.864Z,13.30
2018-02-19T04:29:26.988Z,13.50
2018-02-19T04:31:55.008Z,14.13
2018-02-19T04:34:22.606Z,14.40
2018-02-19T04:36:50.988Z,14.73
2018-02-19T04:39:18.606Z,14.63
2018-02-19T04:41:46.332Z,14.23
2018-02-19T04:44:24.637Z,16.27
2018-02-19T04:46:52.448Z,15.43
2018-02-19T04:49:20.204Z,15.70
2018-02-19T04:51:47.816Z,17.40
2018-02-19T04:54:15.462Z,17.17
2018-02-19T04:56:43.067Z,16.37
2018-02-19T04:59:10.677Z,16.60
2018-02-19T05:01:38.300Z,16.60
2018-02-19T05:04:05.893Z,16.40
2018-02-19T05:06:34.302Z,16.80
2018-02-19T05:09:01.910Z,18.57
2018-02-19T05:11:29.738Z,17.43
2018-02-19T05:13:57.398Z,18.07
2018-02-19T05:16:25.744Z,17.50
2018-02-19T05:18:53.375Z,17.83
2018-02-19T05:21:20.989Z,16.77
2018-02-19T05:23:49.468Z,18.73
2018-02-19T05:26:17.971Z,19.10
2018-02-19T05:28:45.575Z,18.77
2018-02-19T05:31:13.284Z,17.40
2018-02-19T05:33:41.661Z,19.03
2018-02-19T05:36:10.958Z,17.03
2018-02-19T05:38:38.577Z,19.80
2018-02-19T05:41:06.169Z,16.20
2018-02-19T05:43:33.802Z,17.87
2018-02-19T05:46:01.417Z,20.23
2018-02-19T05:48:29.061Z,19.60
2018-02-19T05:50:56.795Z,17.90
2018-02-19T05:53:24.415Z,18.37
2018-02-19T05:55:52.028Z,17.17
2018-02-19T05:58:19.756Z,18.10
2018-02-19T06:00:48.143Z,18.37
2018-02-19T06:03:16.511Z,17.57
2018-02-19T06:05:44.189Z,18.83
2018-02-19T06:08:11.807Z,18.07
2018-02-19T06:10:39.450Z,17.43
2018-02-19T06:13:07.832Z,18.20
2018-02-19T06:15:36.202Z,18.33
2018-02-19T06:18:04.598Z,17.67
2018-02-19T06:20:32.194Z,19.13
2018-02-19T06:22:59.796Z,19.83
2018-02-19T06:25:27.410Z,18.97
2018-02-19T06:27:55.010Z,18.63
2018-02-19T06:30:22.644Z,19.90
2018-02-19T06:32:50.235Z,18.47
2018-02-19T06:35:18.151Z,19.20
2018-02-19T06:37:48.945Z,18.53
2018-02-19T06:40:16.628Z,19.77
2018-02-19T06:42:44.255Z,16.17
2018-02-19T06:45:11.952Z,16.73
2018-02-19T06:47:39.570Z,18.23
2018-02-19T06:50:07.949Z,18.83
2018-02-19T06:52:36.340Z,19.27
2018-02-19T06:55:03.916Z,17.67
2018-02-19T06:57:31.549Z,20.73
2018-02-19T06:59:59.147Z,20.80
2018-02-19T07:02:26.757Z,18.70
2018-02-19T07:04:54.389Z,21.03
2018-02-19T07:07:22.008Z,20.77
2018-02-19T07:09:51.144Z,19.67
2018-02-19T07:12:18.917Z,19.83
2018-02-19T07:14:46.538Z,18.43
2018-02-19T07:17:14.151Z,17.70
2018-02-19T07:19:41.760Z,18.87
2018-02-19T07:22:09.377Z,19.07
2018-02-19T07:24:36.999Z,19.57
2018-02-19T07:27:06.155Z,18.00
2018-02-19T07:29:33.879Z,17.17
2018-02-19T07:32:02.269Z,17.90
2018-02-19T07:34:30.645Z,15.93
2018-02-19T07:36:58.253Z,15.63
2018-02-19T07:39:25.927Z,16.10
2018-02-19T07:41:53.546Z,16.00
2018-02-19T07:44:21.957Z,16.40
2018-02-19T07:46:49.832Z,17.27
2018-02-19T07:49:17.536Z,16.07
2018-02-19T07:51:45.132Z,16.90
2018-02-19T07:54:13.486Z,19.03
2018-02-19T07:56:41.124Z,17.90
2018-02-19T07:59:08.822Z,19.03
2018-02-19T08:01:36.435Z,18.00
2018-02-19T08:04:04.809Z,18.93
2018-02-19T08:06:33.182Z,18.63
2018-02-19T08:09:00.805Z,19.20
2018-02-19T08:11:28.406Z,17.83
2018-02-19T08:13:56.029Z,19.00
2018-02-19T08:16:23.634Z,18.90
2018-02-19T08:18:52.035Z,18.90
2018-02-19T08:21:20.411Z,16.83
2018-02-19T08:23:48.811Z,15.30
2018-02-19T08:26:17.189Z,38.90
2018-02-19T08:28:45.550Z,16.20
2018-02-19T08:31:14.052Z,16.53
2018-02-19T08:33:42.418Z,17.20
2018-02-19T08:36:11.549Z,17.20
2018-02-19T08:38:40.062Z,14.90
2018-02-19T08:41:07.701Z,17.87
2018-02-19T08:43:35.295Z,17.83
2018-02-19T08:46:02.900Z,18.10
2018-02-19T08:48:30.542Z,17.17
2018-02-19T08:50:58.149Z,17.83
2018-02-19T08:53:26.556Z,17.43
2018-02-19T08:55:54.154Z,16.77
2018-02-19T08:58:21.779Z,18.70
2018-02-19T09:00:50.179Z,18.13
2018-02-19T09:03:17.805Z,17.17
2018-02-19T09:05:45.449Z,17.27
2018-02-19T09:08:13.047Z,16.93
2018-02-19T09:10:41.445Z,19.90
2018-02-19T09:13:09.067Z,17.30
2018-02-19T09:15:36.673Z,17.33
2018-02-19T09:18:05.091Z,16.53
2018-02-19T09:20:32.699Z,16.13
2018-02-19T09:23:00.400Z,17.20
2018-02-19T09:25:28.075Z,15.33
2018-02-19T09:27:56.063Z,18.80
2018-02-19T09:30:23.693Z,17.07
2018-02-19T09:32:52.065Z,17.07
2018-02-19T09:35:20.481Z,17.23
2018-02-19T09:37:48.084Z,26.13
2018-02-19T09:40:15.707Z,18.57
2018-02-19T09:42:43.360Z,17.90
2018-02-19T09:45:11.754Z,17.67
2018-02-19T09:47:39.346Z,17.17
2018-02-19T09:50:07.199Z,17.80
2018-02-19T09:52:34.836Z,20.17
2018-02-19T09:55:03.217Z,19.10
2018-02-19T09:57:30.896Z,25.93
2018-02-19T09:59:59.277Z,21.73
2018-02-19T10:02:27.670Z,19.70
2018-02-19T10:04:56.068Z,16.70
2018-02-19T10:07:23.938Z,20.90
2018-02-19T10:09:51.562Z,17.80
2018-02-19T10:12:19.930Z,19.03
2018-02-19T10:14:47.558Z,20.53
2018-02-19T10:17:15.166Z,21.50
2018-02-19T10:19:42.759Z,20.97
2018-02-19T10:22:11.157Z,21.60
2018-02-19T10:24:38.750Z,21.83
2018-02-19T10:27:06.403Z,20.60
2018-02-19T10:29:34.026Z,21.10
2018-02-19T10:32:02.542Z,19.23
2018-02-19T10:34:30.160Z,19.70
2018-02-19T10:36:57.767Z,23.63
2018-02-19T10:39:26.237Z,21.73
2018-02-19T10:41:54.617Z,22.80
2018-02-19T10:44:22.239Z,21.00
2018-02-19T10:46:49.852Z,21.10
2018-02-19T10:49:18.241Z,21.67
2018-02-19T10:51:46.623Z,21.30
2018-02-19T10:54:14.992Z,21.43
2018-02-19T10:56:43.403Z,23.37
2018-02-19T10:59:11.771Z,21.40
2018-02-19T11:01:40.186Z,21.27
2018-02-19T11:04:07.785Z,20.40
2018-02-19T11:06:35.426Z,19.73
2018-02-19T11:09:03.144Z,20.10
2018-02-19T11:11:32.279Z,20.40
2018-02-19T11:13:59.905Z,21.33
2018-02-19T11:16:29.028Z,22.00
2018-02-19T11:18:57.403Z,23.60
2018-02-19T11:21:25.783Z,21.00
2018-02-19T11:23:54.171Z,22.30
2018-02-19T11:26:22.536Z,23.37
2018-02-19T11:28:50.386Z,20.60
2018-02-19T11:31:17.978Z,22.67
2018-02-19T11:33:46.362Z,26.30
2018-02-19T11:36:13.996Z,25.00
2018-02-19T11:38:41.592Z,23.27
2018-02-19T11:41:09.997Z,23.47
2018-02-19T11:43:38.387Z,24.20
2018-02-19T11:46:06.908Z,22.30
2018-02-19T11:48:37.144Z,24.00
2018-02-19T11:51:04.801Z,25.17
2018-02-19T11:53:32.438Z,25.73
2018-02-19T11:56:00.082Z,24.63
2018-02-19T11:58:28.460Z,22.50
2018-02-19T12:00:56.198Z,25.03
2018-02-19T12:03:23.834Z,23.10
2018-02-19T12:05:51.574Z,21.40
2018-02-19T12:08:19.958Z,21.57
2018-02-19T12:10:48.330Z,24.30
2018-02-19T12:13:16.707Z,22.80
2018-02-19T12:15:45.096Z,23.00
2018-02-19T12:18:13.518Z,22.17
2018-02-19T12:20:41.162Z,23.20
2018-02-19T12:23:09.541Z,23.00
2018-02-19T12:25:37.947Z,24.23
2018-02-19T12:28:05.541Z,23.80
2018-02-19T12:30:33.157Z,23.53
2018-02-19T12:33:01.536Z,24.00
2018-02-19T12:35:29.963Z,22.63
2018-02-19T12:37:57.590Z,21.33
2018-02-19T12:40:26.045Z,24.17
2018-02-19T12:42:53.665Z,26.20
2018-02-19T12:45:21.283Z,24.00
2018-02-19T12:47:50.031Z,24.17
2018-02-19T12:50:18.053Z,22.83
2018-02-19T12:52:45.659Z,24.97
2018-02-19T12:55:13.278Z,24.87
2018-02-19T12:57:40.929Z,23.50
2018-02-19T13:00:08.598Z,23.63
2018-02-19T13:02:36.398Z,24.93
2018-02-19T13:05:03.997Z,25.73
2018-02-19T13:07:31.630Z,24.13
2018-02-19T13:10:00.152Z,22.33
2018-02-19T13:12:28.144Z,24.10
2018-02-19T13:14:55.774Z,24.50
2018-02-19T13:17:24.148Z,22.73
2018-02-19T13:19:52.587Z,20.77
2018-02-19T13:22:20.398Z,21.70
2018-02-19T13:24:49.035Z,24.93
2018-02-19T13:27:16.641Z,22.83
2018-02-19T13:29:45.040Z,21.10
2018-02-19T13:32:15.032Z,21.93
2018-02-19T13:34:44.170Z,21.30
2018-02-19T13:37:12.558Z,21.00
2018-02-19T13:39:40.194Z,21.83
2018-02-19T13:42:08.701Z,20.80
2018-02-19T13:44:37.149Z,21.57
2018-02-19T13:47:04.812Z,20.90
2018-02-19T13:49:32.570Z,20.03
2018-02-19T13:52:00.190Z,22.50
2018-02-19T13:54:28.578Z,21.70
2018-02-19T13:56:57.178Z,20.37
2018-02-19T13:59:24.826Z,18.33
2018-02-19T14:01:53.190Z,21.70
2018-02-19T14:04:21.580Z,21.43
2018-02-19T14:06:50.117Z,22.90
2018-02-19T14:09:17.727Z,24.23
2018-02-19T14:11:46.157Z,20.97
2018-02-19T14:14:13.769Z,21.00
2018-02-19T14:16:42.197Z,19.80
2018-02-19T14:19:09.821Z,23.00
2018-02-19T14:21:37.436Z,21.70
2018-02-19T14:24:05.056Z,22.00
2018-02-19T14:26:32.687Z,22.30
2018-02-19T14:29:00.540Z,22.13
2018-02-19T14:31:28.265Z,21.97
2018-02-19T14:33:56.013Z,21.50
2018-02-19T14:36:24.505Z,21.10
2018-02-19T14:38:52.103Z,21.37
2018-02-19T14:41:20.599Z,20.00
2018-02-19T14:43:48.219Z,19.73
2018-02-19T14:46:15.858Z,22.07
2018-02-19T14:48:43.457Z,21.67
2018-02-19T14:51:11.847Z,20.40
2018-02-19T14:53:40.263Z,23.93
2018-02-19T14:56:07.874Z,23.27
2018-02-19T14:58:35.535Z,23.30
2018-02-19T15:01:04.853Z,21.70
2018-02-19T15:03:32.512Z,25.20
2018-02-19T15:06:00.134Z,21.30
2018-02-19T15:08:27.734Z,24.90
2018-02-19T15:10:55.367Z,23.57
2018-02-19T15:13:22.975Z,24.50
2018-02-19T15:15:50.611Z,21.23
2018-02-19T15:18:18.236Z,22.83
2018-02-19T15:20:45.867Z,21.70
2018-02-19T15:23:13.604Z,21.13
2018-02-19T15:25:41.256Z,21.40
2018-02-19T15:28:09.627Z,19.93
2018-02-19T15:30:37.996Z,20.67
2018-02-19T15:33:06.396Z,21.53
2018-02-19T15:35:34.737Z,21.67
2018-02-19T15:38:02.380Z,21.87
2018-02-19T15:40:29.972Z,21.50
2018-02-19T15:42:57.589Z,21.57
2018-02-19T15:45:25.308Z,20.40
2018-02-19T15:47:52.978Z,19.17
2018-02-19T15:50:20.579Z,22.37
2018-02-19T15:52:49.010Z,22.33
2018-02-19T15:55:16.622Z,20.60
2018-02-19T15:57:45.014Z,20.90
2018-02-19T16:00:13.380Z,20.00
2018-02-19T16:02:41.783Z,19.97
2018-02-19T16:05:10.229Z,21.70
2018-02-19T16:07:37.835Z,21.40
2018-02-19T16:10:06.261Z,21.57
2018-02-19T16:12:33.913Z,19.70
2018-02-19T16:15:01.585Z,23.50
2018-02-19T16:17:29.399Z,24.97
2018-02-19T16:19:57.047Z,24.30
2018-02-19T16:22:24.713Z,24.40
2018-02-19T16:24:52.342Z,24.20
2018-02-19T16:27:19.960Z,24.20
2018-02-19T16:29:48.350Z,23.63
2018-02-19T16:32:15.979Z,23.20
2018-02-19T16:34:43.614Z,21.93
2018-02-19T16:37:11.368Z,23.50
2018-02-19T16:39:39.828Z,24.47
2018-02-19T16:42:08.968Z,25.97
2018-02-19T16:44:36.590Z,22.37
2018-02-19T16:47:04.202Z,21.60
2018-02-19T16:49:32.194Z,24.40
2018-02-19T16:51:59.791Z,24.50
2018-02-19T16:54:27.396Z,23.90
2018-02-19T16:56:55.199Z,25.07
2018-02-19T16:59:30.156Z,24.80
2018-02-19T17:01:57.786Z,25.17
2018-02-19T17:04:25.415Z,24.70
2018-02-19T17:06:53.829Z,21.87
2018-02-19T17:09:21.479Z,23.10
2018-02-19T17:11:49.880Z,24.00
2018-02-19T17:14:17.517Z,23.03
2018-02-19T17:16:45.879Z,22.43
2018-02-19T17:19:13.560Z,24.00
2018-02-19T17:21:41.940Z,23.47
2018-02-19T17:24:09.548Z,22.93
2018-02-19T17:26:37.190Z,22.10
2018-02-19T17:29:05.796Z,25.10
2018-02-19T17:31:33.440Z,22.50
2018-02-19T17:34:01.905Z,23.60
2018-02-19T17:36:31.069Z,22.93
2018-02-19T17:38:58.709Z,22.27
2018-02-19T17:41:27.270Z,22.50
2018-02-19T17:43:54.922Z,25.40
2018-02-19T17:46:22.544Z,23.37
2018-02-19T17:48:50.191Z,25.10
2018-02-19T17:51:17.902Z,23.20
2018-02-19T17:53:45.619Z,24.17
2018-02-19T17:56:13.248Z,23.90
2018-02-19T17:58:41.014Z,23.17
2018-02-19T18:01:08.669Z,23.30
2018-02-19T18:03:36.290Z,25.63
2018-02-19T18:06:04.673Z,25.90
2018-02-19T18:08:33.076Z,26.40
2018-02-19T18:11:00.755Z,23.90
2018-02-19T18:13:29.330Z,24.83
2018-02-19T18:15:56.998Z,25.60
2018-02-19T18:18:24.649Z,25.40
2018-02-19T18:20:52.276Z,26.80
2018-02-19T18:23:19.918Z,25.40
2018-02-19T18:25:47.572Z,27.57
2018-02-19T18:28:15.331Z,24.50
2018-02-19T18:30:43.157Z,24.93
2018-02-19T18:33:10.857Z,27.77
2018-02-19T18:35:38.524Z,31.40
2018-02-19T18:38:06.186Z,37.20
2018-02-19T18:40:34.601Z,27.80
2018-02-19T18:43:02.246Z,23.90
2018-02-19T18:45:29.972Z,27.13
2018-02-19T18:47:57.624Z,26.50
2018-02-19T18:50:25.290Z,27.57
2018-02-19T18:52:52.962Z,27.93
2018-02-19T18:55:20.627Z,30.77
2018-02-19T18:57:48.298Z,31.07
2018-02-19T19:00:16.077Z,27.03
2018-02-19T19:02:43.776Z,28.87
2018-02-19T19:05:12.244Z,28.40
2018-02-19T19:07:52.485Z,27.73
2018-02-19T19:10:31.889Z,27.70
2018-02-19T19:12:59.644Z,27.00
2018-02-19T19:15:27.385Z,26.57
2018-02-19T19:17:55.824Z,24.57
2018-02-19T19:20:23.617Z,28.07
2018-02-19T19:22:52.147Z,27.47
2018-02-19T19:25:19.877Z,26.97
2018-02-19T19:27:47.675Z,28.40
2018-02-19T19:30:15.451Z,28.20
2018-02-19T19:32:44.035Z,26.90
2018-02-19T19:35:11.818Z,45.00
2018-02-19T19:37:39.542Z,29.67
2018-02-19T19:40:08.357Z,30.00
2018-02-19T19:42:36.141Z,25.70
2018-02-19T19:45:03.910Z,28.40
2018-02-19T19:47:31.629Z,27.97
2018-02-19T19:50:00.315Z,29.00
2018-02-19T19:52:28.980Z,29.37
2018-02-19T19:54:56.720Z,26.57
2018-02-19T19:57:24.459Z,29.03
2018-02-19T19:59:52.959Z,28.63
2018-02-19T20:02:21.471Z,28.43
2018-02-19T20:04:49.201Z,27.50
2018-02-19T20:07:17.740Z,41.90
2018-02-19T20:09:45.716Z,37.40
2018-02-19T20:12:13.561Z,27.00
2018-02-19T20:14:41.445Z,26.30
2018-02-19T20:17:09.205Z,23.30
2018-02-19T20:19:36.966Z,25.40
2018-02-19T20:22:05.248Z,26.83
2018-02-19T20:24:33.031Z,27.10
2018-02-19T20:27:00.762Z,25.70
2018-02-19T20:29:30.539Z,24.20
2018-02-19T20:31:59.316Z,24.30
2018-02-19T20:34:27.104Z,27.17
2018-02-19T20:36:55.662Z,24.00
2018-02-19T20:39:23.430Z,25.00
2018-02-19T20:41:51.613Z,24.73
2018-02-19T20:44:19.342Z,26.30
2018-02-19T20:46:47.877Z,29.30
2018-02-19T20:49:15.768Z,30.93
2018-02-19T20:51:44.954Z,28.50
2018-02-19T20:54:12.715Z,24.73
2018-02-19T20:56:40.495Z,23.83
2018-02-19T20:59:08.265Z,28.13
2018-02-19T21:01:36.029Z,23.93
2018-02-19T21:04:05.477Z,23.43
2018-02-19T21:06:34.929Z,24.63
2018-02-19T21:09:11.978Z,25.23
2018-02-19T21:11:41.114Z,25.40
2018-02-19T21:14:08.836Z,26.50
2018-02-19T21:16:38.296Z,26.80
2018-02-19T21:19:06.788Z,26.27
2018-02-19T21:21:34.525Z,26.63
2018-02-19T21:24:02.279Z,25.70
2018-02-19T21:26:30.803Z,25.30
2018-02-19T21:28:58.494Z,24.90
2018-02-19T21:31:26.203Z,25.97
2018-02-19T21:33:54.831Z,26.70
2018-02-19T21:36:22.543Z,26.53
2018-02-19T21:38:51.025Z,26.50
2018-02-19T21:41:19.552Z,26.93
2018-02-19T21:43:47.545Z,26.30
2018-02-19T21:46:15.406Z,29.23
2018-02-19T21:48:43.150Z,30.60
2018-02-19T21:51:14.200Z,29.23
2018-02-19T21:53:42.092Z,30.90
2018-02-19T21:56:09.819Z,27.70
2018-02-19T21:58:38.528Z,28.17
2018-02-19T22:01:06.238Z,31.17
2018-02-19T22:03:33.963Z,28.07
2018-02-19T22:06:01.650Z,28.10
2018-02-19T22:08:29.524Z,29.83
2018-02-19T22:10:57.189Z,31.00
2018-02-19T22:13:24.898Z,30.80
2018-02-19T22:15:52.542Z,28.90
2018-02-19T22:18:20.192Z,29.03
2018-02-19T22:20:47.831Z,28.40
2018-02-19T22:23:16.224Z,30.03
2018-02-19T22:25:43.885Z,25.63
2018-02-19T22:28:12.264Z,28.47
2018-02-19T22:30:40.710Z,29.20
2018-02-19T22:33:08.325Z,29.80
2018-02-19T22:35:36.700Z,28.30
2018-02-19T22:38:05.148Z,26.70
2018-02-19T22:40:32.764Z,29.03
2018-02-19T22:43:00.516Z,30.20
2018-02-19T22:45:28.900Z,27.83
2018-02-19T22:47:57.304Z,28.40
2018-02-19T22:50:24.978Z,38.70
2018-02-19T22:52:52.776Z,45.47
2018-02-19T22:55:20.381Z,42.37
2018-02-19T22:57:48.977Z,29.70
2018-02-19T23:00:17.615Z,27.40
2018-02-19T23:02:45.233Z,31.13
2018-02-19T23:05:13.626Z,30.60
2018-02-19T23:07:42.011Z,27.47
2018-02-19T23:10:09.633Z,30.13
2018-02-19T23:12:37.249Z,31.97
2018-02-19T23:15:05.253Z,28.30
2018-02-19T23:17:32.857Z,32.27
2018-02-19T23:20:00.477Z,28.20
2018-02-19T23:22:28.102Z,24.63
2018-02-19T23:24:56.461Z,36.90
2018-02-19T23:27:24.079Z,30.20
2018-02-19T23:29:51.679Z,27.57
2018-02-19T23:32:19.309Z,22.80
2018-02-19T23:34:47.086Z,20.57
2018-02-19T23:37:14.721Z,24.23
2018-02-19T23:39:43.097Z,23.77
2018-02-19T23:42:11.521Z,44.20
2018-02-19T23:44:39.127Z,37.57
2018-02-19T23:47:06.736Z,23.00
2018-02-19T23:49:34.370Z,23.17
2018-02-19T23:52:01.981Z,22.77
2018-02-19T23:54:35.831Z,26.00
2018-02-19T23:57:03.437Z,24.27
2018-02-19T23:59:31.079Z,26.47
